This is the latest recevied weather packets stored in our database for station/object ED1ZAI-14. If no packets are shown the sender has not sent any weather packets the latest 10 day(s).
| Time | Temp. | Humidity | Pressure | Rain* | Wind** | Luminosity | Snow |
|---|---|---|---|---|---|---|---|
| 1778155548 | 3.33° C | 100% | 1034.4 hPa | - | - | - | - |
| 1778153752 | 2.22° C | 100% | 1035 hPa | - | - | - | - |
| 1778151945 | 1.11° C | 100% | 1035.1 hPa | - | - | - | - |
| 1778150145 | 2.78° C | 100% | 1034.8 hPa | - | - | - | - |
| 1778148345 | 7.78° C | 100% | 1034.3 hPa | - | - | - | - |
| 1778146545 | 1.67° C | 100% | 1034.9 hPa | - | - | - | - |
| 1778144745 | 4.44° C | 100% | 1034.6 hPa | - | - | - | - |
| 1778142945 | 8.89° C | 100% | 1034.1 hPa | - | - | - | - |
| 1778141145 | 3.89° C | 100% | 1034.4 hPa | - | - | - | - |
| 1778139345 | 3.89° C | 100% | 1034.4 hPa | - | - | - | - |
| 1778137545 | 2.78° C | 100% | 1034.4 hPa | - | - | - | - |
| 1778135744 | 2.22° C | 100% | 1034.3 hPa | - | - | - | - |
| 1778133944 | 1.67° C | 100% | 1034.3 hPa | - | - | - | - |
| 1778132144 | 1.67° C | 100% | 1034.1 hPa | - | - | - | - |
| 1778130344 | 1.67° C | 100% | 1034.2 hPa | - | - | - | - |
| 1778128544 | 1.67° C | 100% | 1034.2 hPa | - | - | - | - |
| 1778126744 | 1.67° C | 100% | 1034.3 hPa | - | - | - | - |
| 1778124944 | 1.11° C | 100% | 1034.4 hPa | - | - | - | - |
| 1778123144 | 1.11° C | 100% | 1034.5 hPa | - | - | - | - |
| 1778121344 | 1.11° C | 100% | 1034.4 hPa | - | - | - | - |
| 1778119544 | 0.56° C | 100% | 1034.4 hPa | - | - | - | - |
| 1778117744 | 1.11° C | 100% | 1034.4 hPa | - | - | - | - |
| 1778115946 | 1.11° C | 100% | 1034.7 hPa | - | - | - | - |
| 1778114145 | 1.67° C | 100% | 1034.8 hPa | - | - | - | - |
| 1778112345 | 1.67° C | 100% | 1034.9 hPa | - | - | - | - |
* Rain since midnight (hover to see other rain measurements)
** Current wind speed in m/s (hover to see current wind gust speed)